sensor_id;sensor_type;location;lat;lon;timestamp;pressure;altitude;pressure_sealevel;temperature;humidity
7760;BME280;3924;48.830;9.262;2023-04-21T00:01:10;98257.41;;;5.80;87.64
7760;BME280;3924;48.830;9.262;2023-04-21T00:03:38;98258.75;;;5.78;87.70
7760;BME280;3924;48.830;9.262;2023-04-21T00:06:05;98259.28;;;5.74;87.93
7760;BME280;3924;48.830;9.262;2023-04-21T00:08:31;98257.13;;;5.71;87.55
7760;BME280;3924;48.830;9.262;2023-04-21T00:10:58;98264.09;;;5.67;87.79
7760;BME280;3924;48.830;9.262;2023-04-21T00:13:25;98271.66;;;5.65;88.03
7760;BME280;3924;48.830;9.262;2023-04-21T00:15:51;98263.56;;;5.65;87.84
7760;BME280;3924;48.830;9.262;2023-04-21T00:18:18;98255.78;;;5.64;87.79
7760;BME280;3924;48.830;9.262;2023-04-21T00:20:44;98262.25;;;5.63;87.82
7760;BME280;3924;48.830;9.262;2023-04-21T00:23:11;98253.34;;;5.57;88.08
7760;BME280;3924;48.830;9.262;2023-04-21T00:25:39;98255.78;;;5.59;88.06
7760;BME280;3924;48.830;9.262;2023-04-21T00:28:05;98249.31;;;5.60;87.77
7760;BME280;3924;48.830;9.262;2023-04-21T00:30:32;98257.38;;;5.60;88.09
7760;BME280;3924;48.830;9.262;2023-04-21T00:32:58;98261.16;;;5.59;87.95
7760;BME280;3924;48.830;9.262;2023-04-21T00:35:25;98253.34;;;5.57;88.16
7760;BME280;3924;48.830;9.262;2023-04-21T00:37:51;98250.66;;;5.57;88.11
7760;BME280;3924;48.830;9.262;2023-04-21T00:40:18;98248.78;;;5.58;87.95
7760;BME280;3924;48.830;9.262;2023-04-21T00:42:45;98250.09;;;5.55;88.00
7760;BME280;3924;48.830;9.262;2023-04-21T00:45:12;98240.44;;;5.54;88.13
7760;BME280;3924;48.830;9.262;2023-04-21T00:47:41;98242.06;;;5.50;88.02
7760;BME280;3924;48.830;9.262;2023-04-21T00:50:09;98245.81;;;5.49;88.07
7760;BME280;3924;48.830;9.262;2023-04-21T00:52:38;98232.38;;;5.49;88.17
7760;BME280;3924;48.830;9.262;2023-04-21T00:55:05;98234.78;;;5.45;88.06
7760;BME280;3924;48.830;9.262;2023-04-21T00:57:32;98231.28;;;5.45;88.16
7760;BME280;3924;48.830;9.262;2023-04-21T01:00:01;98230.50;;;5.49;88.21
7760;BME280;3924;48.830;9.262;2023-04-21T01:02:28;98229.69;;;5.49;88.20
7760;BME280;3924;48.830;9.262;2023-04-21T01:04:55;98230.50;;;5.49;88.35
7760;BME280;3924;48.830;9.262;2023-04-21T01:07:24;98228.59;;;5.45;88.37
7760;BME280;3924;48.830;9.262;2023-04-21T01:09:50;98231.28;;;5.45;88.30
7760;BME280;3924;48.830;9.262;2023-04-21T01:12:17;98236.66;;;5.45;88.43
7760;BME280;3924;48.830;9.262;2023-04-21T01:14:44;98224.31;;;5.49;88.42
7760;BME280;3924;48.830;9.262;2023-04-21T01:17:11;98213.00;;;5.42;88.44
7760;BME280;3924;48.830;9.262;2023-04-21T01:19:39;98225.91;;;5.40;88.37
7760;BME280;3924;48.830;9.262;2023-04-21T01:22:08;98220.53;;;5.40;88.46
7760;BME280;3924;48.830;9.262;2023-04-21T01:24:39;98212.22;;;5.36;88.38
7760;BME280;3924;48.830;9.262;2023-04-21T01:27:14;98215.97;;;5.30;88.63
7760;BME280;3924;48.830;9.262;2023-04-21T01:29:41;98216.22;;;5.24;88.73
7760;BME280;3924;48.830;9.262;2023-04-21T01:32:10;98216.72;;;5.20;88.53
7760;BME280;3924;48.830;9.262;2023-04-21T01:34:39;98220.50;;;5.19;88.79
7760;BME280;3924;48.830;9.262;2023-04-21T01:37:08;98212.44;;;5.19;88.88
7760;BME280;3924;48.830;9.262;2023-04-21T01:39:44;98215.69;;;5.21;88.85
7760;BME280;3924;48.830;9.262;2023-04-21T01:42:11;98217.81;;;5.25;88.78
7760;BME280;3924;48.830;9.262;2023-04-21T01:44:38;98219.44;;;5.26;88.79
7760;BME280;3924;48.830;9.262;2023-04-21T01:47:05;98225.34;;;5.22;88.75
7760;BME280;3924;48.830;9.262;2023-04-21T01:49:32;98224.28;;;5.24;88.77
7760;BME280;3924;48.830;9.262;2023-04-21T01:51:59;98224.00;;;5.25;89.02
7760;BME280;3924;48.830;9.262;2023-04-21T01:54:25;98231.28;;;5.30;88.77
7760;BME280;3924;48.830;9.262;2023-04-21T01:56:51;98224.81;;;5.26;88.71
7760;BME280;3924;48.830;9.262;2023-04-21T01:59:18;98235.03;;;5.24;89.02
7760;BME280;3924;48.830;9.262;2023-04-21T02:01:45;98227.22;;;5.17;88.78
7760;BME280;3924;48.830;9.262;2023-04-21T02:04:12;98230.19;;;5.15;88.66
7760;BME280;3924;48.830;9.262;2023-04-21T02:06:38;98226.91;;;5.13;88.85
7760;BME280;3924;48.830;9.262;2023-04-21T02:09:05;98233.41;;;5.17;88.80
7760;BME280;3924;48.830;9.262;2023-04-21T02:11:35;98242.00;;;5.25;89.00
7760;BME280;3924;48.830;9.262;2023-04-21T02:14:02;98233.41;;;5.28;89.17
7760;BME280;3924;48.830;9.262;2023-04-21T02:16:29;98221.59;;;5.29;88.77
7760;BME280;3924;48.830;9.262;2023-04-21T02:18:56;98230.19;;;5.31;89.20
7760;BME280;3924;48.830;9.262;2023-04-21T02:21:23;98227.50;;;5.31;88.94
7760;BME280;3924;48.830;9.262;2023-04-21T02:23:50;98229.09;;;5.27;88.88
7760;BME280;3924;48.830;9.262;2023-04-21T02:26:18;98225.91;;;5.30;89.08
7760;BME280;3924;48.830;9.262;2023-04-21T02:28:44;98226.97;;;5.34;89.04
7760;BME280;3924;48.830;9.262;2023-04-21T02:31:11;98223.75;;;5.32;89.03
7760;BME280;3924;48.830;9.262;2023-04-21T02:33:37;98217.28;;;5.28;88.91
7760;BME280;3924;48.830;9.262;2023-04-21T02:36:04;98223.75;;;5.21;89.09
7760;BME280;3924;48.830;9.262;2023-04-21T02:38:31;98222.91;;;5.21;89.06
7760;BME280;3924;48.830;9.262;2023-04-21T02:40:57;98225.88;;;5.19;89.43
7760;BME280;3924;48.830;9.262;2023-04-21T02:43:24;98218.34;;;5.16;89.00
7760;BME280;3924;48.830;9.262;2023-04-21T02:45:50;98224.81;;;5.15;89.23
7760;BME280;3924;48.830;9.262;2023-04-21T02:48:17;98221.28;;;5.20;89.29
7760;BME280;3924;48.830;9.262;2023-04-21T02:50:49;98232.28;;;5.13;89.11
7760;BME280;3924;48.830;9.262;2023-04-21T02:53:16;98234.16;;;5.08;89.31
7760;BME280;3924;48.830;9.262;2023-04-21T02:55:42;98246.78;;;5.07;89.46
7760;BME280;3924;48.830;9.262;2023-04-21T02:58:09;98247.88;;;5.06;89.27
7760;BME280;3924;48.830;9.262;2023-04-21T03:00:36;98248.66;;;4.97;89.10
7760;BME280;3924;48.830;9.262;2023-04-21T03:03:03;98241.38;;;4.92;89.31
7760;BME280;3924;48.830;9.262;2023-04-21T03:05:29;98233.03;;;4.93;89.35
7760;BME280;3924;48.830;9.262;2023-04-21T03:07:56;98227.41;;;4.90;89.50
7760;BME280;3924;48.830;9.262;2023-04-21T03:10:22;98226.34;;;4.96;89.43
7760;BME280;3924;48.830;9.262;2023-04-21T03:12:49;98227.19;;;5.02;89.59
7760;BME280;3924;48.830;9.262;2023-04-21T03:15:15;98221.00;;;5.01;89.42
7760;BME280;3924;48.830;9.262;2023-04-21T03:17:42;98221.00;;;5.06;89.67
7760;BME280;3924;48.830;9.262;2023-04-21T03:20:09;98223.69;;;5.06;89.22
7760;BME280;3924;48.830;9.262;2023-04-21T03:22:37;98211.31;;;5.05;89.37
7760;BME280;3924;48.830;9.262;2023-04-21T03:25:04;98200.06;;;5.03;89.29
7760;BME280;3924;48.830;9.262;2023-04-21T03:27:33;98199.75;;;5.00;89.55
7760;BME280;3924;48.830;9.262;2023-04-21T03:29:59;98191.16;;;4.98;89.52
7760;BME280;3924;48.830;9.262;2023-04-21T03:32:26;98203.25;;;4.95;89.61
7760;BME280;3924;48.830;9.262;2023-04-21T03:34:53;98203.78;;;4.92;89.47
7760;BME280;3924;48.830;9.262;2023-04-21T03:37:19;98208.06;;;4.88;89.67
7760;BME280;3924;48.830;9.262;2023-04-21T03:39:46;98210.72;;;4.83;89.48
7760;BME280;3924;48.830;9.262;2023-04-21T03:42:12;98215.03;;;4.84;89.86
7760;BME280;3924;48.830;9.262;2023-04-21T03:44:38;98216.09;;;4.83;89.79
7760;BME280;3924;48.830;9.262;2023-04-21T03:47:05;98209.94;;;4.82;89.98
7760;BME280;3924;48.830;9.262;2023-04-21T03:49:34;98204.31;;;4.89;89.74
7760;BME280;3924;48.830;9.262;2023-04-21T03:52:01;98211.56;;;4.93;89.98
7760;BME280;3924;48.830;9.262;2023-04-21T03:54:27;98216.13;;;4.93;89.70
7760;BME280;3924;48.830;9.262;2023-04-21T03:56:54;98222.28;;;4.93;89.85
7760;BME280;3924;48.830;9.262;2023-04-21T03:59:20;98218.56;;;4.94;89.64
7760;BME280;3924;48.830;9.262;2023-04-21T04:01:47;98226.63;;;4.94;89.57
7760;BME280;3924;48.830;9.262;2023-04-21T04:04:13;98231.44;;;4.92;89.83
7760;BME280;3924;48.830;9.262;2023-04-21T04:06:40;98235.19;;;4.91;89.62
7760;BME280;3924;48.830;9.262;2023-04-21T04:09:07;98223.66;;;4.91;89.71
7760;BME280;3924;48.830;9.262;2023-04-21T04:11:34;98221.50;;;4.88;90.06
7760;BME280;3924;48.830;9.262;2023-04-21T04:14:00;98227.91;;;4.87;90.04
7760;BME280;3924;48.830;9.262;2023-04-21T04:16:27;98221.75;;;4.86;89.97
7760;BME280;3924;48.830;9.262;2023-04-21T04:18:54;98220.38;;;4.79;89.66
7760;BME280;3924;48.830;9.262;2023-04-21T04:21:21;98216.59;;;4.70;89.82
7760;BME280;3924;48.830;9.262;2023-04-21T04:23:49;98216.03;;;4.62;89.93
7760;BME280;3924;48.830;9.262;2023-04-21T04:26:16;98222.16;;;4.58;89.99
7760;BME280;3924;48.830;9.262;2023-04-21T04:28:44;98220.81;;;4.55;89.87
7760;BME280;3924;48.830;9.262;2023-04-21T04:31:11;98235.59;;;4.58;89.91
7760;BME280;3924;48.830;9.262;2023-04-21T04:33:42;98232.63;;;4.59;90.05
7760;BME280;3924;48.830;9.262;2023-04-21T04:36:09;98230.25;;;4.63;89.79
7760;BME280;3924;48.830;9.262;2023-04-21T04:38:37;98230.78;;;4.65;90.10
7760;BME280;3924;48.830;9.262;2023-04-21T04:41:04;98220.38;;;4.74;90.14
7760;BME280;3924;48.830;9.262;2023-04-21T04:43:31;98233.81;;;4.79;90.19
7760;BME280;3924;48.830;9.262;2023-04-21T04:45:58;98223.59;;;4.76;90.07
7760;BME280;3924;48.830;9.262;2023-04-21T04:48:25;98236.75;;;4.77;90.02
7760;BME280;3924;48.830;9.262;2023-04-21T04:50:51;98233.81;;;4.74;90.01
7760;BME280;3924;48.830;9.262;2023-04-21T04:53:18;98234.38;;;4.81;90.51
7760;BME280;3924;48.830;9.262;2023-04-21T04:55:45;98238.16;;;4.90;90.22
7760;BME280;3924;48.830;9.262;2023-04-21T04:58:13;98235.75;;;4.99;89.90
7760;BME280;3924;48.830;9.262;2023-04-21T05:00:39;98241.41;;;5.02;89.74
7760;BME280;3924;48.830;9.262;2023-04-21T05:03:06;98230.69;;;5.02;89.51
7760;BME280;3924;48.830;9.262;2023-04-21T05:05:32;98231.72;;;4.96;90.03
7760;BME280;3924;48.830;9.262;2023-04-21T05:07:59;98246.75;;;4.97;90.15
7760;BME280;3924;48.830;9.262;2023-04-21T05:10:25;98247.03;;;4.96;90.07
7760;BME280;3924;48.830;9.262;2023-04-21T05:12:52;98261.31;;;5.01;90.15
7760;BME280;3924;48.830;9.262;2023-04-21T05:15:18;98262.94;;;5.12;90.05
7760;BME280;3924;48.830;9.262;2023-04-21T05:17:44;98253.78;;;5.13;89.93
7760;BME280;3924;48.830;9.262;2023-04-21T05:20:11;98246.78;;;5.07;89.76
7760;BME280;3924;48.830;9.262;2023-04-21T05:22:37;98265.59;;;5.02;89.99
7760;BME280;3924;48.830;9.262;2023-04-21T05:25:05;98276.34;;;5.07;90.13
7760;BME280;3924;48.830;9.262;2023-04-21T05:27:32;98270.44;;;5.10;89.89
7760;BME280;3924;48.830;9.262;2023-04-21T05:29:59;98273.41;;;5.14;89.83
7760;BME280;3924;48.830;9.262;2023-04-21T05:32:26;98269.09;;;5.08;89.70
7760;BME280;3924;48.830;9.262;2023-04-21T05:34:52;98269.34;;;5.06;89.87
7760;BME280;3924;48.830;9.262;2023-04-21T05:37:19;98275.25;;;5.03;89.82
7760;BME280;3924;48.830;9.262;2023-04-21T05:39:45;98279.84;;;5.03;89.96
7760;BME280;3924;48.830;9.262;2023-04-21T05:42:12;98266.13;;;5.04;90.13
7760;BME280;3924;48.830;9.262;2023-04-21T05:44:40;98276.09;;;5.09;89.87
7760;BME280;3924;48.830;9.262;2023-04-21T05:47:07;98276.91;;;5.14;90.04
7760;BME280;3924;48.830;9.262;2023-04-21T05:49:34;98262.13;;;5.12;89.89
7760;BME280;3924;48.830;9.262;2023-04-21T05:52:00;98258.09;;;5.14;90.15
7760;BME280;3924;48.830;9.262;2023-04-21T05:54:27;98253.81;;;5.18;89.86
7760;BME280;3924;48.830;9.262;2023-04-21T05:56:53;98256.53;;;5.24;89.89
7760;BME280;3924;48.830;9.262;2023-04-21T05:59:20;98257.59;;;5.33;90.14
7760;BME280;3924;48.830;9.262;2023-04-21T06:01:48;98259.25;;;5.44;90.13
7760;BME280;3924;48.830;9.262;2023-04-21T06:04:15;98249.56;;;5.53;90.06
7760;BME280;3924;48.830;9.262;2023-04-21T06:06:42;98255.22;;;5.62;89.99
7760;BME280;3924;48.830;9.262;2023-04-21T06:09:09;98248.78;;;5.68;89.57
7760;BME280;3924;48.830;9.262;2023-04-21T06:11:37;98245.56;;;5.66;89.48
7760;BME280;3924;48.830;9.262;2023-04-21T06:14:04;98244.75;;;5.65;89.68
7760;BME280;3924;48.830;9.262;2023-04-21T06:16:30;98242.06;;;5.65;89.63
7760;BME280;3924;48.830;9.262;2023-04-21T06:18:59;98245.00;;;5.59;89.54
7760;BME280;3924;48.830;9.262;2023-04-21T06:21:26;98242.31;;;5.59;89.83
7760;BME280;3924;48.830;9.262;2023-04-21T06:23:53;98235.06;;;5.64;89.49
7760;BME280;3924;48.830;9.262;2023-04-21T06:26:19;98221.09;;;5.67;89.77
7760;BME280;3924;48.830;9.262;2023-04-21T06:28:46;98224.03;;;5.76;89.78
7760;BME280;3924;48.830;9.262;2023-04-21T06:31:12;98224.88;;;5.92;89.88
7760;BME280;3924;48.830;9.262;2023-04-21T06:33:41;98248.56;;;6.05;89.63
7760;BME280;3924;48.830;9.262;2023-04-21T06:36:07;98256.06;;;6.13;89.37
7760;BME280;3924;48.830;9.262;2023-04-21T06:38:34;98268.16;;;6.21;89.33
7760;BME280;3924;48.830;9.262;2023-04-21T06:41:00;98268.41;;;6.35;89.53
7760;BME280;3924;48.830;9.262;2023-04-21T06:43:27;98258.94;;;6.57;89.55
7760;BME280;3924;48.830;9.262;2023-04-21T06:45:54;98256.38;;;7.02;88.98
7760;BME280;3924;48.830;9.262;2023-04-21T06:48:20;98253.88;;;7.55;88.21
7760;BME280;3924;48.830;9.262;2023-04-21T06:50:47;98257.13;;;7.57;87.86
7760;BME280;3924;48.830;9.262;2023-04-21T06:53:13;98252.84;;;7.51;88.00
7760;BME280;3924;48.830;9.262;2023-04-21T06:55:41;98239.88;;;7.53;88.14
7760;BME280;3924;48.830;9.262;2023-04-21T06:58:07;98244.16;;;7.59;88.02
7760;BME280;3924;48.830;9.262;2023-04-21T07:00:34;98244.63;;;7.71;88.00
7760;BME280;3924;48.830;9.262;2023-04-21T07:03:00;98244.00;;;7.79;88.07
7760;BME280;3924;48.830;9.262;2023-04-21T07:05:27;98237.97;;;7.92;87.73
7760;BME280;3924;48.830;9.262;2023-04-21T07:07:54;98237.47;;;7.90;87.40
7760;BME280;3924;48.830;9.262;2023-04-21T07:10:25;98235.41;;;7.77;87.80
7760;BME280;3924;48.830;9.262;2023-04-21T07:12:52;98239.78;;;7.68;87.72
7760;BME280;3924;48.830;9.262;2023-04-21T07:15:19;98242.53;;;7.63;87.95
7760;BME280;3924;48.830;9.262;2023-04-21T07:17:46;98241.50;;;7.54;88.17
7760;BME280;3924;48.830;9.262;2023-04-21T07:20:12;98234.25;;;7.49;88.13
7760;BME280;3924;48.830;9.262;2023-04-21T07:22:39;98228.59;;;7.46;88.37
7760;BME280;3924;48.830;9.262;2023-04-21T07:25:06;98218.09;;;7.49;88.48
7760;BME280;3924;48.830;9.262;2023-04-21T07:27:34;98222.06;;;7.57;88.42
7760;BME280;3924;48.830;9.262;2023-04-21T07:30:04;98219.28;;;7.67;88.18
7760;BME280;3924;48.830;9.262;2023-04-21T07:32:31;98214.63;;;7.78;88.10
7760;BME280;3924;48.830;9.262;2023-04-21T07:34:59;98219.06;;;7.92;87.97
7760;BME280;3924;48.830;9.262;2023-04-21T07:37:27;98217.94;;;7.99;87.62
7760;BME280;3924;48.830;9.262;2023-04-21T07:39:54;98210.41;;;7.95;87.83
7760;BME280;3924;48.830;9.262;2023-04-21T07:42:20;98204.66;;;8.02;87.57
7760;BME280;3924;48.830;9.262;2023-04-21T07:44:47;98208.94;;;8.08;87.72
7760;BME280;3924;48.830;9.262;2023-04-21T07:47:14;98209.41;;;8.15;87.50
7760;BME280;3924;48.830;9.262;2023-04-21T07:49:40;98214.72;;;8.26;87.53
7760;BME280;3924;48.830;9.262;2023-04-21T07:52:07;98218.19;;;8.31;87.53
7760;BME280;3924;48.830;9.262;2023-04-21T07:54:34;98211.03;;;8.45;87.39
7760;BME280;3924;48.830;9.262;2023-04-21T07:57:00;98206.56;;;8.60;87.22
7760;BME280;3924;48.830;9.262;2023-04-21T07:59:29;98208.78;;;8.76;86.92
7760;BME280;3924;48.830;9.262;2023-04-21T08:01:56;98206.47;;;8.89;86.74
7760;BME280;3924;48.830;9.262;2023-04-21T08:04:23;98204.84;;;8.88;86.62
7760;BME280;3924;48.830;9.262;2023-04-21T08:06:51;98215.44;;;8.84;86.83
7760;BME280;3924;48.830;9.262;2023-04-21T08:09:18;98219.16;;;8.88;86.82
7760;BME280;3924;48.830;9.262;2023-04-21T08:11:45;98206.22;;;8.85;86.68
7760;BME280;3924;48.830;9.262;2023-04-21T08:14:12;98202.22;;;8.83;86.56
7760;BME280;3924;48.830;9.262;2023-04-21T08:16:39;98206.00;;;8.82;86.85
7760;BME280;3924;48.830;9.262;2023-04-21T08:19:08;98214.63;;;8.84;86.66
7760;BME280;3924;48.830;9.262;2023-04-21T08:21:35;98216.00;;;8.81;86.66
7760;BME280;3924;48.830;9.262;2023-04-21T08:24:01;98215.22;;;8.81;86.58
7760;BME280;3924;48.830;9.262;2023-04-21T08:26:28;98203.59;;;8.80;86.81
7760;BME280;3924;48.830;9.262;2023-04-21T08:28:55;98207.16;;;8.99;86.58
7760;BME280;3924;48.830;9.262;2023-04-21T08:31:22;98203.78;;;9.08;86.54
7760;BME280;3924;48.830;9.262;2023-04-21T08:33:49;98195.63;;;9.13;86.35
7760;BME280;3924;48.830;9.262;2023-04-21T08:36:28;98203.56;;;9.42;86.23
7760;BME280;3924;48.830;9.262;2023-04-21T08:38:56;98211.66;;;9.60;85.98
7760;BME280;3924;48.830;9.262;2023-04-21T08:41:23;98207.06;;;9.94;85.51
7760;BME280;3924;48.830;9.262;2023-04-21T08:43:50;98205.97;;;10.08;85.33
7760;BME280;3924;48.830;9.262;2023-04-21T08:46:17;98193.88;;;10.20;85.18
7760;BME280;3924;48.830;9.262;2023-04-21T08:48:45;98196.25;;;10.40;85.01
7760;BME280;3924;48.830;9.262;2023-04-21T08:51:15;98192.44;;;10.68;84.56
7760;BME280;3924;48.830;9.262;2023-04-21T08:53:43;98190.41;;;10.88;84.22
7760;BME280;3924;48.830;9.262;2023-04-21T08:56:11;98197.09;;;11.04;83.84
7760;BME280;3924;48.830;9.262;2023-04-21T08:58:37;98197.38;;;11.16;83.74
7760;BME280;3924;48.830;9.262;2023-04-21T09:01:04;98192.53;;;11.27;83.70
7760;BME280;3924;48.830;9.262;2023-04-21T09:03:31;98195.09;;;11.46;83.48
7760;BME280;3924;48.830;9.262;2023-04-21T09:06:02;98188.44;;;11.52;83.30
7760;BME280;3924;48.830;9.262;2023-04-21T09:08:33;98187.81;;;11.55;83.01
7760;BME280;3924;48.830;9.262;2023-04-21T09:11:00;98184.75;;;11.70;82.93
7760;BME280;3924;48.830;9.262;2023-04-21T09:13:36;98185.38;;;11.90;82.76
7760;BME280;3924;48.830;9.262;2023-04-21T09:16:05;98183.88;;;12.06;82.21
7760;BME280;3924;48.830;9.262;2023-04-21T09:18:40;98178.84;;;12.22;82.07
7760;BME280;3924;48.830;9.262;2023-04-21T09:21:16;98175.81;;;12.23;81.68
7760;BME280;3924;48.830;9.262;2023-04-21T09:23:51;98176.78;;;12.27;81.74
7760;BME280;3924;48.830;9.262;2023-04-21T09:26:20;98177.06;;;12.17;81.77
7760;BME280;3924;48.830;9.262;2023-04-21T09:28:50;98177.88;;;12.18;81.83
7760;BME280;3924;48.830;9.262;2023-04-21T09:31:21;98175.53;;;12.33;81.47
7760;BME280;3924;48.830;9.262;2023-04-21T09:33:55;98170.69;;;12.62;81.17
7760;BME280;3924;48.830;9.262;2023-04-21T09:36:28;98169.16;;;12.86;80.51
7760;BME280;3924;48.830;9.262;2023-04-21T09:38:58;98171.28;;;13.07;80.08
7760;BME280;3924;48.830;9.262;2023-04-21T09:41:44;98165.22;;;13.19;79.72
7760;BME280;3924;48.830;9.262;2023-04-21T09:44:11;98164.59;;;13.30;79.61
7760;BME280;3924;48.830;9.262;2023-04-21T09:46:41;98159.31;;;13.43;79.47
7760;BME280;3924;48.830;9.262;2023-04-21T09:49:10;98164.13;;;13.54;79.34
7760;BME280;3924;48.830;9.262;2023-04-21T09:51:39;98166.84;;;13.46;79.19
7760;BME280;3924;48.830;9.262;2023-04-21T09:54:33;98165.72;;;13.29;79.13
7760;BME280;3924;48.830;9.262;2023-04-21T09:57:02;98164.91;;;13.37;79.20
7760;BME280;3924;48.830;9.262;2023-04-21T09:59:36;98165.56;;;13.69;78.61
7760;BME280;3924;48.830;9.262;2023-04-21T10:02:05;98160.19;;;13.99;78.13
7760;BME280;3924;48.830;9.262;2023-04-21T10:04:34;98156.97;;;14.05;77.79
7760;BME280;3924;48.830;9.262;2023-04-21T10:07:02;98148.66;;;14.02;77.58
7760;BME280;3924;48.830;9.262;2023-04-21T10:09:45;98140.44;;;14.10;77.65
7760;BME280;3924;48.830;9.262;2023-04-21T10:12:13;98133.25;;;14.06;77.57
7760;BME280;3924;48.830;9.262;2023-04-21T10:14:40;98128.06;;;14.21;77.33
7760;BME280;3924;48.830;9.262;2023-04-21T10:17:08;98126.84;;;14.40;76.95
7760;BME280;3924;48.830;9.262;2023-04-21T10:19:36;98118.19;;;14.46;76.76
7760;BME280;3924;48.830;9.262;2023-04-21T10:22:07;98117.66;;;14.62;76.33
7760;BME280;3924;48.830;9.262;2023-04-21T10:24:38;98107.75;;;14.78;75.90
7760;BME280;3924;48.830;9.262;2023-04-21T10:27:09;98108.28;;;14.92;75.61
7760;BME280;3924;48.830;9.262;2023-04-21T10:29:36;98106.81;;;14.95;75.22
7760;BME280;3924;48.830;9.262;2023-04-21T10:32:40;98106.28;;;15.01;75.04
7760;BME280;3924;48.830;9.262;2023-04-21T10:35:15;98113.84;;;15.04;74.73
7760;BME280;3924;48.830;9.262;2023-04-21T10:37:42;98111.72;;;15.10;74.75
7760;BME280;3924;48.830;9.262;2023-04-21T10:40:32;98104.41;;;15.35;74.11
7760;BME280;3924;48.830;9.262;2023-04-21T10:43:47;98105.16;;;15.44;73.99
7760;BME280;3924;48.830;9.262;2023-04-21T10:46:35;98109.06;;;15.55;73.52
7760;BME280;3924;48.830;9.262;2023-04-21T10:49:13;98105.25;;;15.69;73.04
7760;BME280;3924;48.830;9.262;2023-04-21T10:57:19;98117.81;;;15.82;72.18
7760;BME280;3924;48.830;9.262;2023-04-21T10:59:48;98107.81;;;15.86;71.96
7760;BME280;3924;48.830;9.262;2023-04-21T11:02:17;98109.53;;;15.91;71.72
7760;BME280;3924;48.830;9.262;2023-04-21T11:04:44;98103.28;;;16.02;71.48
7760;BME280;3924;48.830;9.262;2023-04-21T11:07:22;98103.75;;;16.04;71.49
7760;BME280;3924;48.830;9.262;2023-04-21T11:10:00;98099.44;;;16.16;70.91
7760;BME280;3924;48.830;9.262;2023-04-21T11:12:38;98089.75;;;16.06;70.83
7760;BME280;3924;48.830;9.262;2023-04-21T11:15:07;98085.19;;;16.10;70.75
7760;BME280;3924;48.830;9.262;2023-04-21T11:17:36;98086.53;;;16.04;70.71
7760;BME280;3924;48.830;9.262;2023-04-21T11:20:05;98094.16;;;15.86;70.87
7760;BME280;3924;48.830;9.262;2023-04-21T11:22:32;98095.78;;;15.99;70.66
7760;BME280;3924;48.830;9.262;2023-04-21T11:24:59;98080.53;;;16.35;69.65
7760;BME280;3924;48.830;9.262;2023-04-21T11:27:27;98080.28;;;16.64;68.96
7760;BME280;3924;48.830;9.262;2023-04-21T11:29:54;98078.69;;;16.63;69.01
7760;BME280;3924;48.830;9.262;2023-04-21T11:32:22;98085.06;;;16.80;68.61
7760;BME280;3924;48.830;9.262;2023-04-21T11:34:49;98075.09;;;17.00;67.95
7760;BME280;3924;48.830;9.262;2023-04-21T11:37:21;98067.97;;;17.23;67.64
7760;BME280;3924;48.830;9.262;2023-04-21T11:39:48;98068.38;;;17.37;67.02
7760;BME280;3924;48.830;9.262;2023-04-21T11:42:21;98068.22;;;17.46;66.72
7760;BME280;3924;48.830;9.262;2023-04-21T11:44:48;98060.44;;;17.48;66.55
7760;BME280;3924;48.830;9.262;2023-04-21T11:47:19;98068.78;;;17.67;66.18
7760;BME280;3924;48.830;9.262;2023-04-21T11:49:49;98058.47;;;17.76;65.80
7760;BME280;3924;48.830;9.262;2023-04-21T11:52:35;98064.44;;;17.66;65.94
7760;BME280;3924;48.830;9.262;2023-04-21T11:55:13;98058.41;;;17.61;65.83
7760;BME280;3924;48.830;9.262;2023-04-21T11:57:43;98051.91;;;17.65;65.55
7760;BME280;3924;48.830;9.262;2023-04-21T12:00:11;98047.97;;;17.79;65.28
7760;BME280;3924;48.830;9.262;2023-04-21T12:02:42;98046.28;;;17.90;64.72
7760;BME280;3924;48.830;9.262;2023-04-21T12:05:11;98038.94;;;17.94;64.52
7760;BME280;3924;48.830;9.262;2023-04-21T12:07:40;98037.78;;;18.11;64.01
7760;BME280;3924;48.830;9.262;2023-04-21T12:10:28;98042.91;;;18.28;63.74
7760;BME280;3924;48.830;9.262;2023-04-21T12:12:55;98043.44;;;18.34;63.38
7760;BME280;3924;48.830;9.262;2023-04-21T12:15:22;98044.31;;;18.38;63.12
7760;BME280;3924;48.830;9.262;2023-04-21T12:17:51;98044.28;;;18.53;62.80
7760;BME280;3924;48.830;9.262;2023-04-21T12:20:22;98031.34;;;18.70;62.31
7760;BME280;3924;48.830;9.262;2023-04-21T12:22:49;98043.22;;;18.74;61.85
7760;BME280;3924;48.830;9.262;2023-04-21T12:25:16;98041.97;;;18.71;61.87
7760;BME280;3924;48.830;9.262;2023-04-21T12:27:56;98039.47;;;18.82;61.68
7760;BME280;3924;48.830;9.262;2023-04-21T12:30:23;98034.53;;;18.72;61.55
7760;BME280;3924;48.830;9.262;2023-04-21T12:32:49;98023.09;;;18.70;61.47
7760;BME280;3924;48.830;9.262;2023-04-21T12:35:17;98027.38;;;18.86;60.66
7760;BME280;3924;48.830;9.262;2023-04-21T12:37:44;98014.81;;;18.85;60.85
7760;BME280;3924;48.830;9.262;2023-04-21T12:40:11;98020.16;;;18.98;60.47
7760;BME280;3924;48.830;9.262;2023-04-21T12:42:37;98006.19;;;19.06;60.08
7760;BME280;3924;48.830;9.262;2023-04-21T12:45:04;98007.94;;;19.14;59.78
7760;BME280;3924;48.830;9.262;2023-04-21T12:47:31;98005.41;;;19.25;59.54
7760;BME280;3924;48.830;9.262;2023-04-21T12:49:58;98002.66;;;19.25;59.35
7760;BME280;3924;48.830;9.262;2023-04-21T12:52:25;97993.09;;;19.38;58.85
7760;BME280;3924;48.830;9.262;2023-04-21T12:54:52;97995.03;;;19.38;58.81
7760;BME280;3924;48.830;9.262;2023-04-21T12:57:19;97994.94;;;19.54;58.28
7760;BME280;3924;48.830;9.262;2023-04-21T12:59:46;97990.03;;;19.63;58.11
7760;BME280;3924;48.830;9.262;2023-04-21T13:02:13;97981.72;;;19.59;57.91
7760;BME280;3924;48.830;9.262;2023-04-21T13:04:40;97979.75;;;19.60;57.88
7760;BME280;3924;48.830;9.262;2023-04-21T13:07:08;97979.16;;;19.70;57.66
7760;BME280;3924;48.830;9.262;2023-04-21T13:09:34;97969.41;;;19.76;57.30
7760;BME280;3924;48.830;9.262;2023-04-21T13:12:01;97974.50;;;19.74;57.20
7760;BME280;3924;48.830;9.262;2023-04-21T13:14:27;97981.59;;;19.75;57.25
7760;BME280;3924;48.830;9.262;2023-04-21T13:16:54;97984.03;;;19.80;56.70
7760;BME280;3924;48.830;9.262;2023-04-21T13:19:21;97978.66;;;19.87;56.59
7760;BME280;3924;48.830;9.262;2023-04-21T13:21:47;97977.66;;;19.99;56.22
7760;BME280;3924;48.830;9.262;2023-04-21T13:24:14;97978.47;;;20.00;56.08
7760;BME280;3924;48.830;9.262;2023-04-21T13:26:41;97977.97;;;19.94;56.02
7760;BME280;3924;48.830;9.262;2023-04-21T13:29:08;97973.91;;;19.84;55.78
7760;BME280;3924;48.830;9.262;2023-04-21T13:31:35;97969.97;;;19.85;55.91
7760;BME280;3924;48.830;9.262;2023-04-21T13:34:02;97963.44;;;19.93;55.50
7760;BME280;3924;48.830;9.262;2023-04-21T13:36:28;97964.69;;;20.00;55.43
7760;BME280;3924;48.830;9.262;2023-04-21T13:38:55;97953.81;;;20.07;55.05
7760;BME280;3924;48.830;9.262;2023-04-21T13:41:21;97952.22;;;20.06;54.91